Terminal Aerodrome Forecast
Issued by NWS Tuscon, AZ

Home | Current Version | Previous Version | Text Only | Print | Product List | Glossary On
Versions: 1 2 3 4 5 6 7 8 9 10 11 12 13 14
656
FTUS45 KTWC 010520
TAFDUG
TAF
KDUG 010520Z 0106/0206 12007KT P6SM SCT120
     FM011000 VRB04KT P6SM FEW120
     FM011900 01011G21KT P6SM SCT070 BKN120
     FM020300 02007KT P6SM SCT120 BKN200=

USA.gov is the U.S. government's official web portal to all federal, state and local government web resources and services.